DLH892 EDDF-EVRA
Flight info
| Callsign | DLH892 |
|---|---|
| Flight time | 1h 38m |
| Altitude | 35000 |
| Route | TOBAK8M/25C TOBAK N858 FEDZA Y172 SISMI DCT ASMIG DCT RIMKO DCT FARCU DCT GORPI DCT ANFEV DCT DIPEB DCT NINTA DCT ADAXA DCT ORVIX |
| Aircraft | A321/M-SDE3FGHIRWY/LB1 |
Departure
| Time | 2026-05-04 12:16 |
|---|---|
| Airport | Frankfurt Main Airport (EDDF) |
Arrival
| Time | 2026-05-04 13:55 |
|---|---|
| Airport | Riga International Airport (EVRA) |
| Time | Latitude | Longitude | Altitude | Speed | Heading |
|---|---|---|---|---|---|
| 2026-05-04 11:52 | 50.04585 | 8.56605 | 355 ft | 0 kts | 114° |
| 2026-05-04 12:07 | 50.04594 | 8.56576 | 356 ft | 4 kts | 116° |
| 2026-05-04 12:08 | 50.04606 | 8.56539 | 354 ft | 4 kts | 124° |
| 2026-05-04 12:08 | 50.04623 | 8.56509 | 345 ft | 4 kts | 153° |
| 2026-05-04 12:08 | 50.04639 | 8.56504 | 357 ft | 0 kts | 205° |
| 2026-05-04 12:11 | 50.04600 | 8.56476 | 354 ft | 13 kts | 205° |
| 2026-05-04 12:11 | 50.04515 | 8.56369 | 350 ft | 17 kts | 243° |
| 2026-05-04 12:12 | 50.04470 | 8.56191 | 353 ft | 19 kts | 249° |
| 2026-05-04 12:12 | 50.04382 | 8.56040 | 355 ft | 21 kts | 173° |
| 2026-05-04 12:12 | 50.04297 | 8.56121 | 351 ft | 14 kts | 109° |
| 2026-05-04 12:12 | 50.04229 | 8.56212 | 354 ft | 14 kts | 159° |
| 2026-05-04 12:13 | 50.04147 | 8.56281 | 356 ft | 13 kts | 120° |
| 2026-05-04 12:14 | 50.04469 | 8.57710 | 348 ft | 26 kts | 69° |
| 2026-05-04 12:15 | 50.04527 | 8.57948 | 347 ft | 19 kts | 69° |
| 2026-05-04 12:15 | 50.04476 | 8.58097 | 347 ft | 17 kts | 155° |
| 2026-05-04 12:15 | 50.04378 | 8.58108 | 354 ft | 13 kts | 223° |
| 2026-05-04 12:15 | 50.04328 | 8.57921 | 345 ft | 40 kts | 249° |
| 2026-05-04 12:16 | 50.04223 | 8.57487 | 353 ft | 86 kts | 249° |
| 2026-05-04 12:16 | 50.03944 | 8.56317 | 349 ft | 143 kts | 249° |
| 2026-05-04 12:16 | 50.03552 | 8.54673 | 440 ft | 178 kts | 250° |
| 2026-05-04 12:16 | 50.03137 | 8.52878 | 1164 ft | 176 kts | 249° |
| 2026-05-04 12:17 | 50.02696 | 8.51085 | 1891 ft | 183 kts | 244° |
| 2026-05-04 12:17 | 50.01774 | 8.49661 | 2390 ft | 197 kts | 205° |
| 2026-05-04 12:17 | 50.00464 | 8.48985 | 2864 ft | 199 kts | 198° |
| 2026-05-04 12:17 | 49.99121 | 8.48380 | 3378 ft | 201 kts | 198° |
| 2026-05-04 12:18 | 49.97779 | 8.47783 | 3884 ft | 201 kts | 199° |
| 2026-05-04 12:18 | 49.96426 | 8.47172 | 4367 ft | 204 kts | 199° |
| 2026-05-04 12:18 | 49.95032 | 8.46541 | 4718 ft | 216 kts | 199° |
| 2026-05-04 12:18 | 49.93519 | 8.45853 | 4872 ft | 236 kts | 199° |
| 2026-05-04 12:19 | 49.91992 | 8.44861 | 5367 ft | 239 kts | 221° |
| 2026-05-04 12:19 | 49.91045 | 8.42794 | 5986 ft | 239 kts | 255° |
| 2026-05-04 12:19 | 49.91026 | 8.40227 | 6552 ft | 246 kts | 282° |
| 2026-05-04 12:19 | 49.91840 | 8.37792 | 6824 ft | 266 kts | 312° |
| 2026-05-04 12:20 | 49.93434 | 8.36241 | 7317 ft | 279 kts | 342° |
| 2026-05-04 12:20 | 49.95392 | 8.36202 | 7880 ft | 290 kts | 16° |
| 2026-05-04 12:20 | 49.97185 | 8.37696 | 8578 ft | 296 kts | 34° |
| 2026-05-04 12:20 | 49.98891 | 8.39541 | 9322 ft | 301 kts | 36° |
| 2026-05-04 12:21 | 50.00613 | 8.41443 | 10047 ft | 305 kts | 36° |
| 2026-05-04 12:21 | 50.02387 | 8.43416 | 10319 ft | 323 kts | 36° |
| 2026-05-04 12:21 | 50.04271 | 8.45508 | 10459 ft | 342 kts | 36° |
| 2026-05-04 12:21 | 50.06235 | 8.47675 | 10584 ft | 359 kts | 36° |
| 2026-05-04 12:22 | 50.08321 | 8.49962 | 10803 ft | 372 kts | 36° |
| 2026-05-04 12:22 | 50.10454 | 8.52293 | 11271 ft | 377 kts | 35° |
| 2026-05-04 12:22 | 50.12610 | 8.54650 | 11850 ft | 379 kts | 35° |
| 2026-05-04 12:22 | 50.14776 | 8.57020 | 12444 ft | 382 kts | 35° |
| 2026-05-04 12:23 | 50.16960 | 8.59416 | 12987 ft | 385 kts | 35° |
| 2026-05-04 12:23 | 50.19161 | 8.61834 | 13512 ft | 388 kts | 35° |
| 2026-05-04 12:23 | 50.21374 | 8.64271 | 14000 ft | 391 kts | 35° |
| 2026-05-04 12:23 | 50.23601 | 8.66730 | 14442 ft | 394 kts | 36° |
| 2026-05-04 12:24 | 50.25848 | 8.69214 | 14874 ft | 397 kts | 35° |
| 2026-05-04 12:24 | 50.28112 | 8.71719 | 15312 ft | 400 kts | 35° |
| 2026-05-04 12:24 | 50.30390 | 8.74242 | 15732 ft | 403 kts | 36° |
| 2026-05-04 12:24 | 50.32685 | 8.76791 | 16154 ft | 406 kts | 35° |
| 2026-05-04 12:25 | 50.34999 | 8.79363 | 16579 ft | 410 kts | 35° |
| 2026-05-04 12:25 | 50.37331 | 8.81955 | 16983 ft | 413 kts | 35° |
| 2026-05-04 12:25 | 50.39679 | 8.84569 | 17367 ft | 416 kts | 35° |
| 2026-05-04 12:25 | 50.42048 | 8.87207 | 17755 ft | 418 kts | 35° |
| 2026-05-04 12:26 | 50.44428 | 8.89858 | 18122 ft | 421 kts | 35° |
| 2026-05-04 12:26 | 50.46824 | 8.92529 | 18461 ft | 424 kts | 35° |
| 2026-05-04 12:26 | 50.49230 | 8.95217 | 18790 ft | 426 kts | 35° |
| 2026-05-04 12:26 | 50.51654 | 8.97929 | 19125 ft | 429 kts | 35° |
| 2026-05-04 12:27 | 50.54092 | 9.00659 | 19459 ft | 431 kts | 35° |
| 2026-05-04 12:27 | 50.56539 | 9.03408 | 19797 ft | 433 kts | 35° |
| 2026-05-04 12:27 | 50.58965 | 9.06142 | 20121 ft | 435 kts | 35° |
| 2026-05-04 12:27 | 50.61432 | 9.08923 | 20457 ft | 437 kts | 35° |
| 2026-05-04 12:28 | 50.63911 | 9.11722 | 20793 ft | 440 kts | 35° |
| 2026-05-04 12:28 | 50.66404 | 9.14538 | 21112 ft | 442 kts | 35° |
| 2026-05-04 12:28 | 50.68885 | 9.17423 | 21432 ft | 444 kts | 39° |
| 2026-05-04 12:28 | 50.71107 | 9.20825 | 21725 ft | 447 kts | 49° |
| 2026-05-04 12:29 | 50.72958 | 9.24761 | 22019 ft | 449 kts | 59° |
| 2026-05-04 12:29 | 50.74428 | 9.29114 | 22305 ft | 450 kts | 65° |
| 2026-05-04 12:29 | 50.75815 | 9.33558 | 22622 ft | 452 kts | 65° |
| 2026-05-04 12:29 | 50.77209 | 9.38025 | 22929 ft | 454 kts | 65° |
| 2026-05-04 12:30 | 50.78611 | 9.42508 | 23210 ft | 457 kts | 64° |
| 2026-05-04 12:30 | 50.80027 | 9.47020 | 23500 ft | 459 kts | 64° |
| 2026-05-04 12:30 | 50.81449 | 9.51548 | 23743 ft | 461 kts | 64° |
| 2026-05-04 12:30 | 50.82878 | 9.56107 | 23993 ft | 463 kts | 64° |
| 2026-05-04 12:31 | 50.84308 | 9.60683 | 24239 ft | 465 kts | 64° |
| 2026-05-04 12:31 | 50.85736 | 9.65280 | 24484 ft | 467 kts | 65° |
| 2026-05-04 12:31 | 50.87167 | 9.69905 | 24723 ft | 469 kts | 65° |
| 2026-05-04 12:31 | 50.88601 | 9.74552 | 24960 ft | 471 kts | 65° |
| 2026-05-04 12:32 | 50.90039 | 9.79224 | 25200 ft | 472 kts | 65° |
| 2026-05-04 12:32 | 50.92916 | 9.88618 | 25678 ft | 476 kts | 65° |
| 2026-05-04 12:32 | 50.94361 | 9.93361 | 25907 ft | 478 kts | 65° |
| 2026-05-04 12:33 | 50.95809 | 9.98126 | 26109 ft | 480 kts | 65° |
| 2026-05-04 12:33 | 50.97261 | 10.02900 | 26354 ft | 482 kts | 65° |
| 2026-05-04 12:33 | 50.98722 | 10.07706 | 26583 ft | 484 kts | 65° |
| 2026-05-04 12:33 | 51.00183 | 10.12521 | 26802 ft | 485 kts | 65° |
| 2026-05-04 12:34 | 51.01650 | 10.17363 | 27049 ft | 487 kts | 65° |
| 2026-05-04 12:34 | 51.03119 | 10.22224 | 27284 ft | 489 kts | 65° |
| 2026-05-04 12:34 | 51.04592 | 10.27110 | 27512 ft | 491 kts | 65° |
| 2026-05-04 12:34 | 51.06236 | 10.31874 | 27727 ft | 493 kts | 54° |
| 2026-05-04 12:35 | 51.08479 | 10.35984 | 27920 ft | 494 kts | 42° |
| 2026-05-04 12:35 | 51.11152 | 10.39410 | 28121 ft | 494 kts | 33° |
| 2026-05-04 12:35 | 51.14051 | 10.42359 | 28293 ft | 496 kts | 30° |
| 2026-05-04 12:35 | 51.16953 | 10.45347 | 28473 ft | 498 kts | 31° |
| 2026-05-04 12:36 | 51.19836 | 10.48429 | 28649 ft | 499 kts | 32° |
| 2026-05-04 12:36 | 51.22706 | 10.51552 | 28896 ft | 499 kts | 32° |
| 2026-05-04 12:36 | 51.25570 | 10.54672 | 29165 ft | 498 kts | 32° |
| 2026-05-04 12:36 | 51.28440 | 10.57775 | 29471 ft | 497 kts | 32° |
| 2026-05-04 12:37 | 51.31306 | 10.60845 | 29743 ft | 496 kts | 32° |
| 2026-05-04 12:37 | 51.34177 | 10.63896 | 30010 ft | 496 kts | 31° |
| 2026-05-04 12:37 | 51.37051 | 10.66944 | 30208 ft | 496 kts | 31° |
| 2026-05-04 12:37 | 51.39869 | 10.70012 | 30410 ft | 496 kts | 33° |
| 2026-05-04 12:38 | 51.42670 | 10.73268 | 30626 ft | 496 kts | 34° |
| 2026-05-04 12:38 | 51.45419 | 10.76625 | 30855 ft | 496 kts | 36° |
| 2026-05-04 12:38 | 51.48138 | 10.80030 | 31069 ft | 496 kts | 36° |
| 2026-05-04 12:38 | 51.50855 | 10.83442 | 31280 ft | 495 kts | 36° |
| 2026-05-04 12:39 | 51.53495 | 10.87017 | 31501 ft | 496 kts | 43° |
| 2026-05-04 12:39 | 51.55918 | 10.90959 | 31715 ft | 496 kts | 44° |
| 2026-05-04 12:39 | 51.58342 | 10.94917 | 31910 ft | 496 kts | 44° |
| 2026-05-04 12:39 | 51.60769 | 10.98862 | 32117 ft | 496 kts | 44° |
| 2026-05-04 12:40 | 51.63198 | 11.02804 | 32326 ft | 496 kts | 44° |
| 2026-05-04 12:40 | 51.65625 | 11.06748 | 32538 ft | 496 kts | 44° |
| 2026-05-04 12:40 | 51.68048 | 11.10703 | 32737 ft | 495 kts | 44° |
| 2026-05-04 12:40 | 51.70427 | 11.14611 | 32937 ft | 495 kts | 44° |
| 2026-05-04 12:41 | 51.72830 | 11.18578 | 33132 ft | 494 kts | 44° |
| 2026-05-04 12:41 | 51.75231 | 11.22550 | 33342 ft | 494 kts | 44° |
| 2026-05-04 12:41 | 51.77634 | 11.26525 | 33538 ft | 494 kts | 44° |
| 2026-05-04 12:41 | 51.80041 | 11.30503 | 33720 ft | 495 kts | 44° |
| 2026-05-04 12:42 | 51.82448 | 11.34483 | 33908 ft | 494 kts | 44° |
| 2026-05-04 12:42 | 51.84848 | 11.38458 | 34076 ft | 494 kts | 44° |
| 2026-05-04 12:42 | 51.87246 | 11.42441 | 34222 ft | 493 kts | 44° |
| 2026-05-04 12:42 | 51.89642 | 11.46428 | 34352 ft | 493 kts | 44° |
| 2026-05-04 12:43 | 51.92030 | 11.50407 | 34504 ft | 493 kts | 44° |
| 2026-05-04 12:43 | 51.94418 | 11.54391 | 34662 ft | 493 kts | 44° |
| 2026-05-04 12:43 | 51.96822 | 11.58359 | 34856 ft | 492 kts | 43° |
| 2026-05-04 12:43 | 51.99286 | 11.62214 | 34971 ft | 492 kts | 41° |
| 2026-05-04 12:44 | 52.01801 | 11.65970 | 34989 ft | 492 kts | 39° |
| 2026-05-04 12:44 | 52.06893 | 11.73385 | 34972 ft | 491 kts | 39° |
| 2026-05-04 12:45 | 52.11946 | 11.80869 | 34969 ft | 491 kts | 40° |
| 2026-05-04 12:45 | 52.16947 | 11.88463 | 34993 ft | 492 kts | 40° |
| 2026-05-04 12:46 | 52.21933 | 11.96094 | 34972 ft | 492 kts | 41° |
| 2026-05-04 12:46 | 52.26934 | 12.03733 | 34980 ft | 492 kts | 40° |
| 2026-05-04 12:47 | 52.31909 | 12.11327 | 34981 ft | 492 kts | 40° |
| 2026-05-04 12:47 | 52.36908 | 12.18984 | 34985 ft | 493 kts | 41° |
| 2026-05-04 12:48 | 52.41903 | 12.26669 | 34997 ft | 493 kts | 40° |
| 2026-05-04 12:48 | 52.46914 | 12.34409 | 34989 ft | 494 kts | 41° |
| 2026-05-04 12:49 | 52.51916 | 12.42159 | 34988 ft | 495 kts | 41° |
| 2026-05-04 12:49 | 52.56922 | 12.49946 | 34980 ft | 495 kts | 41° |
| 2026-05-04 12:50 | 52.61925 | 12.57752 | 34991 ft | 496 kts | 41° |
| 2026-05-04 12:50 | 52.66927 | 12.65579 | 34972 ft | 496 kts | 41° |
| 2026-05-04 12:51 | 52.72271 | 12.72699 | 34975 ft | 493 kts | 33° |
| 2026-05-04 12:51 | 52.77783 | 12.79442 | 34979 ft | 493 kts | 33° |
| 2026-05-04 12:52 | 52.83251 | 12.86177 | 34978 ft | 493 kts | 33° |
| 2026-05-04 12:52 | 52.88749 | 12.92979 | 34981 ft | 493 kts | 33° |
| 2026-05-04 12:53 | 52.94237 | 12.99776 | 34980 ft | 493 kts | 33° |
| 2026-05-04 12:53 | 52.99729 | 13.06603 | 34979 ft | 493 kts | 33° |
| 2026-05-04 12:54 | 53.05210 | 13.13439 | 34993 ft | 493 kts | 33° |
| 2026-05-04 12:54 | 53.10698 | 13.20288 | 34984 ft | 493 kts | 33° |
| 2026-05-04 12:55 | 53.16153 | 13.27122 | 34977 ft | 494 kts | 33° |
| 2026-05-04 12:55 | 53.21629 | 13.34033 | 34976 ft | 494 kts | 34° |
| 2026-05-04 12:56 | 53.27110 | 13.40971 | 34983 ft | 494 kts | 33° |
| 2026-05-04 12:56 | 53.32593 | 13.47911 | 34975 ft | 494 kts | 34° |
| 2026-05-04 12:57 | 53.38075 | 13.54869 | 34970 ft | 494 kts | 34° |
| 2026-05-04 12:57 | 53.43557 | 13.61860 | 34975 ft | 495 kts | 34° |
| 2026-05-04 12:58 | 53.49028 | 13.68878 | 34992 ft | 495 kts | 34° |
| 2026-05-04 12:58 | 53.54508 | 13.75912 | 34982 ft | 495 kts | 34° |
| 2026-05-04 12:59 | 53.59953 | 13.82911 | 34979 ft | 496 kts | 34° |
| 2026-05-04 12:59 | 53.65427 | 13.89988 | 34976 ft | 496 kts | 34° |
| 2026-05-04 13:00 | 53.70891 | 13.97093 | 34989 ft | 496 kts | 34° |
| 2026-05-04 13:00 | 53.76360 | 14.04215 | 34978 ft | 496 kts | 34° |
| 2026-05-04 13:01 | 53.81835 | 14.11352 | 34976 ft | 497 kts | 34° |
| 2026-05-04 13:01 | 53.86389 | 14.17318 | 34976 ft | 497 kts | 34° |
| 2026-05-04 13:02 | 53.91847 | 14.24536 | 35002 ft | 498 kts | 35° |
| 2026-05-04 13:02 | 53.97252 | 14.31917 | 34989 ft | 499 kts | 36° |
| 2026-05-04 13:03 | 54.02632 | 14.39385 | 34967 ft | 499 kts | 36° |
| 2026-05-04 13:03 | 54.08016 | 14.46856 | 34974 ft | 499 kts | 36° |
| 2026-05-04 13:04 | 54.13382 | 14.54259 | 35016 ft | 499 kts | 36° |
| 2026-05-04 13:04 | 54.18782 | 14.61728 | 35000 ft | 500 kts | 36° |
| 2026-05-04 13:05 | 54.24181 | 14.69242 | 34989 ft | 500 kts | 36° |
| 2026-05-04 13:05 | 54.29570 | 14.76777 | 34983 ft | 500 kts | 36° |
| 2026-05-04 13:06 | 54.34925 | 14.84277 | 34985 ft | 500 kts | 36° |
| 2026-05-04 13:06 | 54.40315 | 14.91855 | 34993 ft | 501 kts | 36° |
| 2026-05-04 13:07 | 54.45692 | 14.99465 | 34981 ft | 501 kts | 36° |
| 2026-05-04 13:07 | 54.51076 | 15.07097 | 34977 ft | 501 kts | 36° |
| 2026-05-04 13:08 | 54.56453 | 15.14745 | 34972 ft | 501 kts | 36° |
| 2026-05-04 13:08 | 54.61846 | 15.22434 | 34954 ft | 503 kts | 36° |
| 2026-05-04 13:09 | 54.67236 | 15.30147 | 34943 ft | 503 kts | 36° |
| 2026-05-04 13:09 | 54.72597 | 15.37844 | 34940 ft | 504 kts | 36° |
| 2026-05-04 13:10 | 54.77985 | 15.45615 | 34956 ft | 504 kts | 36° |
| 2026-05-04 13:10 | 54.83377 | 15.53426 | 34965 ft | 505 kts | 36° |
| 2026-05-04 13:11 | 54.88773 | 15.61261 | 34952 ft | 506 kts | 36° |
| 2026-05-04 13:11 | 54.93973 | 15.69540 | 34951 ft | 509 kts | 43° |
| 2026-05-04 13:12 | 54.98918 | 15.78356 | 34940 ft | 509 kts | 43° |
| 2026-05-04 13:12 | 55.03874 | 15.87213 | 34942 ft | 510 kts | 43° |
| 2026-05-04 13:13 | 55.08793 | 15.96014 | 34935 ft | 510 kts | 43° |
| 2026-05-04 13:13 | 55.13746 | 16.04906 | 34938 ft | 510 kts | 43° |
| 2026-05-04 13:14 | 55.18688 | 16.13829 | 34945 ft | 510 kts | 43° |
| 2026-05-04 13:14 | 55.23625 | 16.22771 | 34954 ft | 511 kts | 43° |
| 2026-05-04 13:15 | 55.28553 | 16.31731 | 34914 ft | 510 kts | 43° |
| 2026-05-04 13:15 | 55.33476 | 16.40724 | 34910 ft | 511 kts | 43° |
| 2026-05-04 13:16 | 55.38399 | 16.49755 | 34913 ft | 512 kts | 43° |
| 2026-05-04 13:16 | 55.43324 | 16.58809 | 34912 ft | 512 kts | 43° |
| 2026-05-04 13:17 | 55.48246 | 16.67889 | 34929 ft | 512 kts | 43° |
| 2026-05-04 13:17 | 55.53163 | 16.77009 | 34913 ft | 512 kts | 43° |
| 2026-05-04 13:18 | 55.58043 | 16.86080 | 34910 ft | 512 kts | 43° |
| 2026-05-04 13:18 | 55.62940 | 16.95222 | 34899 ft | 512 kts | 43° |
| 2026-05-04 13:19 | 55.67833 | 17.04408 | 34892 ft | 512 kts | 43° |
| 2026-05-04 13:19 | 55.72712 | 17.13600 | 34887 ft | 511 kts | 43° |
| 2026-05-04 13:20 | 55.77577 | 17.22803 | 34895 ft | 511 kts | 43° |
| 2026-05-04 13:20 | 55.82481 | 17.31931 | 34883 ft | 510 kts | 42° |
| 2026-05-04 13:21 | 55.87466 | 17.40918 | 34904 ft | 510 kts | 41° |
| 2026-05-04 13:21 | 55.92428 | 17.49857 | 34881 ft | 510 kts | 41° |
| 2026-05-04 13:22 | 55.97392 | 17.58926 | 34879 ft | 510 kts | 42° |
| 2026-05-04 13:22 | 56.02333 | 17.68051 | 34870 ft | 511 kts | 42° |
| 2026-05-04 13:23 | 56.07272 | 17.77191 | 34867 ft | 510 kts | 42° |
| 2026-05-04 13:23 | 56.12198 | 17.86338 | 34852 ft | 509 kts | 42° |
| 2026-05-04 13:24 | 56.16764 | 17.96077 | 34830 ft | 514 kts | 56° |
| 2026-05-04 13:24 | 56.19767 | 18.07737 | 34833 ft | 517 kts | 73° |
| 2026-05-04 13:25 | 56.22581 | 18.26452 | 34847 ft | 518 kts | 75° |
| 2026-05-04 13:25 | 56.24268 | 18.39038 | 34853 ft | 518 kts | 79° |
| 2026-05-04 13:26 | 56.25640 | 18.51758 | 34859 ft | 518 kts | 80° |
| 2026-05-04 13:26 | 56.26950 | 18.64427 | 34855 ft | 518 kts | 80° |
| 2026-05-04 13:27 | 56.28347 | 18.77135 | 34840 ft | 517 kts | 79° |
| 2026-05-04 13:27 | 56.29833 | 18.89795 | 34842 ft | 517 kts | 74° |
| 2026-05-04 13:28 | 56.32132 | 19.02060 | 34843 ft | 517 kts | 70° |
| 2026-05-04 13:28 | 56.34449 | 19.14319 | 34838 ft | 517 kts | 71° |
| 2026-05-04 13:29 | 56.36737 | 19.26610 | 34845 ft | 517 kts | 71° |
| 2026-05-04 13:29 | 56.39025 | 19.38916 | 34842 ft | 517 kts | 71° |
| 2026-05-04 13:30 | 56.41305 | 19.51225 | 34871 ft | 517 kts | 71° |
| 2026-05-04 13:30 | 56.43576 | 19.63563 | 34869 ft | 517 kts | 71° |
| 2026-05-04 13:31 | 56.45832 | 19.75908 | 34864 ft | 517 kts | 71° |
| 2026-05-04 13:31 | 56.48080 | 19.88274 | 34864 ft | 517 kts | 71° |
| 2026-05-04 13:32 | 56.50312 | 20.00641 | 34864 ft | 517 kts | 71° |
| 2026-05-04 13:32 | 56.52532 | 20.13030 | 34856 ft | 516 kts | 72° |
| 2026-05-04 13:33 | 56.54716 | 20.25322 | 34885 ft | 515 kts | 72° |
| 2026-05-04 13:33 | 56.56887 | 20.37648 | 34779 ft | 513 kts | 72° |
| 2026-05-04 13:34 | 56.57972 | 20.43818 | 34533 ft | 512 kts | 72° |
| 2026-05-04 13:34 | 56.59055 | 20.49976 | 34295 ft | 513 kts | 72° |
| 2026-05-04 13:34 | 56.60136 | 20.56157 | 34059 ft | 514 kts | 72° |
| 2026-05-04 13:34 | 56.61216 | 20.62356 | 33209 ft | 519 kts | 72° |
| 2026-05-04 13:35 | 56.62305 | 20.68628 | 32334 ft | 521 kts | 72° |
| 2026-05-04 13:35 | 56.64489 | 20.81259 | 30486 ft | 526 kts | 73° |
| 2026-05-04 13:35 | 56.65585 | 20.87636 | 29478 ft | 530 kts | 73° |
| 2026-05-04 13:36 | 56.66671 | 20.93982 | 28999 ft | 521 kts | 73° |
| 2026-05-04 13:36 | 56.67739 | 21.00252 | 28326 ft | 517 kts | 73° |
| 2026-05-04 13:36 | 56.68794 | 21.06483 | 27706 ft | 513 kts | 74° |
| 2026-05-04 13:36 | 56.69839 | 21.12668 | 27035 ft | 509 kts | 74° |
| 2026-05-04 13:37 | 56.70874 | 21.18814 | 26413 ft | 505 kts | 74° |
| 2026-05-04 13:37 | 56.71897 | 21.24892 | 25788 ft | 501 kts | 74° |
| 2026-05-04 13:37 | 56.72900 | 21.30859 | 25167 ft | 497 kts | 74° |
| 2026-05-04 13:37 | 56.73579 | 21.34908 | 24750 ft | 495 kts | 74° |
| 2026-05-04 13:38 | 56.74898 | 21.42819 | 23935 ft | 490 kts | 74° |
| 2026-05-04 13:38 | 56.75879 | 21.48730 | 23288 ft | 485 kts | 74° |
| 2026-05-04 13:38 | 56.76846 | 21.54581 | 22722 ft | 478 kts | 74° |
| 2026-05-04 13:38 | 56.77795 | 21.60350 | 22174 ft | 471 kts | 74° |
| 2026-05-04 13:39 | 56.78728 | 21.66030 | 21633 ft | 464 kts | 74° |
| 2026-05-04 13:39 | 56.79645 | 21.71636 | 21128 ft | 458 kts | 74° |
| 2026-05-04 13:39 | 56.80548 | 21.77178 | 20607 ft | 452 kts | 74° |
| 2026-05-04 13:39 | 56.81440 | 21.82658 | 20096 ft | 448 kts | 74° |
| 2026-05-04 13:40 | 56.82319 | 21.88085 | 19580 ft | 443 kts | 74° |
| 2026-05-04 13:40 | 56.83185 | 21.93459 | 19068 ft | 439 kts | 74° |
| 2026-05-04 13:40 | 56.84030 | 21.98719 | 18551 ft | 435 kts | 74° |
| 2026-05-04 13:40 | 56.84876 | 22.04003 | 18016 ft | 432 kts | 74° |
| 2026-05-04 13:41 | 56.85714 | 22.09261 | 17432 ft | 429 kts | 74° |
| 2026-05-04 13:41 | 56.86541 | 22.14455 | 16907 ft | 424 kts | 74° |
| 2026-05-04 13:41 | 56.87359 | 22.19595 | 16359 ft | 419 kts | 74° |
| 2026-05-04 13:42 | 56.88966 | 22.29732 | 15293 ft | 411 kts | 74° |
| 2026-05-04 13:42 | 56.89751 | 22.34722 | 14830 ft | 405 kts | 74° |
| 2026-05-04 13:42 | 56.90521 | 22.39617 | 14509 ft | 396 kts | 74° |
| 2026-05-04 13:42 | 56.91299 | 22.44408 | 14189 ft | 389 kts | 73° |
| 2026-05-04 13:43 | 56.92087 | 22.49141 | 14004 ft | 388 kts | 73° |
| 2026-05-04 13:43 | 56.92879 | 22.53863 | 13761 ft | 388 kts | 73° |
| 2026-05-04 13:43 | 56.93670 | 22.58577 | 13427 ft | 385 kts | 73° |
| 2026-05-04 13:43 | 56.94449 | 22.63260 | 13114 ft | 383 kts | 73° |
| 2026-05-04 13:44 | 56.95216 | 22.67931 | 12810 ft | 382 kts | 73° |
| 2026-05-04 13:44 | 56.95974 | 22.72582 | 12488 ft | 381 kts | 74° |
| 2026-05-04 13:44 | 56.96729 | 22.77228 | 12147 ft | 380 kts | 74° |
| 2026-05-04 13:44 | 56.97485 | 22.81884 | 11337 ft | 380 kts | 74° |
| 2026-05-04 13:45 | 56.98236 | 22.86500 | 10821 ft | 376 kts | 74° |
| 2026-05-04 13:45 | 56.98973 | 22.91068 | 10445 ft | 367 kts | 74° |
| 2026-05-04 13:45 | 56.99678 | 22.95470 | 10321 ft | 352 kts | 74° |
| 2026-05-04 13:45 | 57.00354 | 22.99700 | 10094 ft | 340 kts | 75° |
| 2026-05-04 13:46 | 57.00910 | 23.03874 | 9743 ft | 332 kts | 85° |
| 2026-05-04 13:46 | 57.01003 | 23.08014 | 9520 ft | 319 kts | 98° |
| 2026-05-04 13:46 | 57.00793 | 23.11978 | 9054 ft | 314 kts | 100° |
| 2026-05-04 13:46 | 57.00576 | 23.15926 | 8529 ft | 307 kts | 99° |
| 2026-05-04 13:47 | 57.00359 | 23.19886 | 8167 ft | 308 kts | 100° |
| 2026-05-04 13:47 | 57.00143 | 23.23771 | 7795 ft | 302 kts | 100° |
| 2026-05-04 13:47 | 56.99936 | 23.27511 | 7356 ft | 292 kts | 100° |
| 2026-05-04 13:47 | 56.99727 | 23.31213 | 7124 ft | 294 kts | 101° |
| 2026-05-04 13:48 | 56.99517 | 23.34968 | 6800 ft | 297 kts | 97° |
| 2026-05-04 13:48 | 56.99523 | 23.38752 | 6519 ft | 295 kts | 92° |
| 2026-05-04 13:48 | 56.99555 | 23.42501 | 6253 ft | 293 kts | 92° |
| 2026-05-04 13:48 | 56.99580 | 23.46226 | 5975 ft | 292 kts | 93° |
| 2026-05-04 13:49 | 56.99601 | 23.49949 | 5698 ft | 291 kts | 93° |
| 2026-05-04 13:49 | 56.99618 | 23.53656 | 5432 ft | 291 kts | 92° |
| 2026-05-04 13:49 | 56.99628 | 23.56108 | 5252 ft | 290 kts | 92° |
| 2026-05-04 13:49 | 56.99646 | 23.59796 | 4986 ft | 289 kts | 92° |
| 2026-05-04 13:50 | 56.99664 | 23.63436 | 4948 ft | 284 kts | 92° |
| 2026-05-04 13:50 | 56.99907 | 23.68232 | 4789 ft | 291 kts | 77° |
| 2026-05-04 13:50 | 57.00247 | 23.70702 | 4340 ft | 300 kts | 76° |
| 2026-05-04 13:50 | 57.00794 | 23.74449 | 3749 ft | 308 kts | 75° |
| 2026-05-04 13:51 | 57.01366 | 23.78288 | 3159 ft | 315 kts | 74° |
| 2026-05-04 13:51 | 57.01944 | 23.82162 | 2695 ft | 307 kts | 75° |
| 2026-05-04 13:51 | 57.02477 | 23.85764 | 2620 ft | 279 kts | 75° |
| 2026-05-04 13:51 | 57.02931 | 23.89108 | 2573 ft | 261 kts | 83° |
| 2026-05-04 13:52 | 57.02178 | 23.94822 | 1886 ft | 204 kts | 133° |
| 2026-05-04 13:52 | 57.01264 | 23.96544 | 1603 ft | 180 kts | 152° |
| 2026-05-04 13:52 | 57.00238 | 23.97594 | 1362 ft | 160 kts | 169° |
| 2026-05-04 13:53 | 56.99214 | 23.98076 | 1146 ft | 146 kts | 180° |
| 2026-05-04 13:53 | 56.98224 | 23.98100 | 970 ft | 141 kts | 193° |
| 2026-05-04 13:53 | 56.97250 | 23.97922 | 791 ft | 141 kts | 191° |
| 2026-05-04 13:54 | 56.95286 | 23.97637 | 480 ft | 137 kts | 192° |
| 2026-05-04 13:54 | 56.94343 | 23.97407 | 274 ft | 137 kts | 179° |
| 2026-05-04 13:54 | 56.92562 | 23.97146 | 45 ft | 83 kts | 185° |
| 2026-05-04 13:55 | 56.92186 | 23.97079 | 45 ft | 45 kts | 185° |
| 2026-05-04 13:55 | 56.91722 | 23.97281 | 44 ft | 18 kts | 107° |
| 2026-05-04 13:55 | 56.91781 | 23.97408 | 44 ft | 15 kts | 14° |
| 2026-05-04 13:56 | 56.91885 | 23.97431 | 44 ft | 15 kts | 5° |
| 2026-05-04 13:56 | 56.91995 | 23.97442 | 44 ft | 16 kts | 4° |
| 2026-05-04 13:56 | 56.92137 | 23.97635 | 44 ft | 6 kts | 64° |
| 2026-05-04 13:57 | 56.92181 | 23.97660 | 44 ft | 5 kts | 6° |
| 2026-05-04 13:57 | 56.92192 | 23.97663 | 43 ft | 0 kts | 7° |